Terminal Aerodrome Forecast
Issued by NWS Spokane, WA

Home | Current Version | Previous Version | Text Only | Print | Product List | Glossary On
Versions: 1 2 3 4 5 6 7 8 9 10 11 12 13 14 15 16 17 18 19 20 21 22 23 24 25 26 27 28 29 30 31 32 33 34 35 36 37 38 39 40 41 42 43 44 45 46
000
FTUS46 KOTX 190536
TAFGEG
TAF
KGEG 190536Z 1906/2006 15009KT 6SM -RA BR OVC040
     FM191300 18009KT 6SM -RA BR BKN025 OVC040
     FM191500 19009KT P6SM BKN010 OVC030
     FM200300 14005KT P6SM SCT015 BKN060 OVC100=

USA.gov is the U.S. government's official web portal to all federal, state and local government web resources and services.